createdAt,value
2023-04-01T00:01:14.949Z,10.30
2023-04-01T00:03:42.449Z,10.30
2023-04-01T00:06:14.607Z,10.30
2023-04-01T00:08:41.749Z,10.30
2023-04-01T00:11:09.042Z,10.30
2023-04-01T00:13:36.844Z,10.30
2023-04-01T00:16:13.867Z,10.20
2023-04-01T00:18:48.837Z,10.20
2023-04-01T00:21:17.046Z,10.20
2023-04-01T00:23:44.928Z,10.30
2023-04-01T00:26:13.462Z,10.30
2023-04-01T00:28:41.497Z,10.30
2023-04-01T00:31:11.425Z,10.30
2023-04-01T00:33:41.753Z,10.30
2023-04-01T00:36:13.759Z,10.40
2023-04-01T00:38:42.706Z,10.20
2023-04-01T00:41:16.273Z,10.20
2023-04-01T00:43:47.715Z,10.20
2023-04-01T00:46:15.086Z,10.20
2023-04-01T00:48:56.475Z,10.20
2023-04-01T00:51:27.914Z,10.20
2023-04-01T00:53:58.995Z,10.10
2023-04-01T00:56:33.493Z,10.10
2023-04-01T00:59:09.268Z,10.10
2023-04-01T01:01:37.227Z,10.10
2023-04-01T01:04:04.497Z,10.10
2023-04-01T01:07:09.228Z,10.10
2023-04-01T01:10:01.376Z,10.10
2023-04-01T01:12:58.828Z,10.10
2023-04-01T01:15:48.913Z,10.10
2023-04-01T01:19:15.120Z,10.10
2023-04-01T01:22:19.524Z,10.10
2023-04-01T01:25:17.652Z,10.10
2023-04-01T01:27:57.757Z,10.10
2023-04-01T01:30:42.378Z,10.10
2023-04-01T01:33:32.622Z,10.10
2023-04-01T01:36:03.596Z,10.00
2023-04-01T01:38:35.420Z,10.00
2023-04-01T01:41:08.391Z,10.00
2023-04-01T01:43:41.871Z,10.00
2023-04-01T01:46:15.916Z,9.90
2023-04-01T01:48:44.940Z,9.90
2023-04-01T01:51:12.326Z,10.00
2023-04-01T01:53:39.833Z,10.00
2023-04-01T01:56:08.125Z,10.00
2023-04-01T01:58:45.621Z,10.00
2023-04-01T02:01:31.535Z,10.10
2023-04-01T02:04:06.934Z,10.00
2023-04-01T02:06:38.591Z,10.00
2023-04-01T02:09:09.667Z,10.00
2023-04-01T02:11:45.214Z,10.00
2023-04-01T02:14:21.112Z,10.00
2023-04-01T02:17:16.164Z,10.00
2023-04-01T02:20:10.347Z,10.10
2023-04-01T02:22:44.330Z,10.10
2023-04-01T02:25:24.081Z,10.00
2023-04-01T02:27:53.808Z,10.00
2023-04-01T02:30:21.334Z,10.00
2023-04-01T02:32:50.504Z,10.00
2023-04-01T02:35:18.507Z,10.00
2023-04-01T02:37:49.604Z,10.00
2023-04-01T02:40:18.137Z,10.00
2023-04-01T02:42:45.898Z,10.00
2023-04-01T02:45:14.293Z,10.00
2023-04-01T02:47:42.581Z,9.90
2023-04-01T02:50:10.984Z,9.90
2023-04-01T02:52:38.233Z,9.90
2023-04-01T02:55:07.794Z,9.90
2023-04-01T02:57:35.403Z,9.80
2023-04-01T03:00:02.866Z,9.80
2023-04-01T03:02:30.101Z,9.80
2023-04-01T03:04:57.408Z,9.80
2023-04-01T03:07:24.749Z,9.80
2023-04-01T03:09:51.914Z,9.80
2023-04-01T03:12:19.074Z,9.80
2023-04-01T03:14:51.210Z,9.70
2023-04-01T03:17:18.389Z,9.80
2023-04-01T03:19:45.762Z,9.80
2023-04-01T03:22:13.345Z,9.80
2023-04-01T03:24:40.468Z,9.80
2023-04-01T03:27:07.569Z,9.80
2023-04-01T03:29:34.753Z,9.70
2023-04-01T03:32:01.910Z,9.70
2023-04-01T03:34:29.211Z,9.70
2023-04-01T03:36:56.821Z,9.70
2023-04-01T03:39:24.024Z,9.70
2023-04-01T03:41:51.731Z,9.70
2023-04-01T03:44:18.908Z,9.70
2023-04-01T03:46:49.893Z,9.70
2023-04-01T03:49:19.137Z,9.70
2023-04-01T03:51:46.547Z,9.70
2023-04-01T03:54:14.146Z,9.70
2023-04-01T03:56:41.533Z,9.70
2023-04-01T03:59:09.395Z,9.80
2023-04-01T04:01:36.817Z,9.70
2023-04-01T04:04:04.081Z,9.80
2023-04-01T04:06:31.384Z,9.80
2023-04-01T04:08:58.528Z,9.80
2023-04-01T04:11:26.925Z,9.80
2023-04-01T04:13:56.023Z,9.90
2023-04-01T04:16:24.086Z,9.90
2023-04-01T04:18:57.686Z,9.90
2023-04-01T04:21:25.237Z,9.90
2023-04-01T04:23:52.603Z,9.90
2023-04-01T04:26:21.123Z,9.90
2023-04-01T04:28:57.453Z,9.90
2023-04-01T04:31:26.056Z,9.90
2023-04-01T04:33:55.875Z,9.90
2023-04-01T04:36:23.861Z,9.90
2023-04-01T04:38:53.797Z,10.00
2023-04-01T04:41:23.218Z,9.90
2023-04-01T04:43:55.072Z,9.90
2023-04-01T04:46:24.253Z,10.00
2023-04-01T04:48:57.679Z,10.00
2023-04-01T04:51:25.180Z,10.00
2023-04-01T04:53:53.261Z,10.00
2023-04-01T04:56:27.323Z,9.90
2023-04-01T04:59:05.379Z,10.00
2023-04-01T05:01:42.461Z,10.00
2023-04-01T05:04:09.691Z,10.10
2023-04-01T05:06:36.915Z,10.10
2023-04-01T05:09:04.670Z,10.10
2023-04-01T05:11:31.888Z,10.10
2023-04-01T05:13:59.097Z,10.10
2023-04-01T05:16:27.218Z,10.10
2023-04-01T05:18:54.410Z,10.10
2023-04-01T05:21:21.551Z,10.00
2023-04-01T05:23:48.937Z,10.10
2023-04-01T05:26:16.404Z,10.10
2023-04-01T05:28:43.810Z,10.10
2023-04-01T05:31:11.433Z,10.10
2023-04-01T05:33:40.869Z,10.10
2023-04-01T05:36:17.233Z,10.10
2023-04-01T05:38:47.171Z,10.20
2023-04-01T05:41:16.278Z,10.20
2023-04-01T05:43:46.419Z,10.20
2023-04-01T05:46:32.768Z,10.30
2023-04-01T05:49:09.194Z,10.20
2023-04-01T05:51:37.334Z,10.30
2023-04-01T05:54:06.708Z,10.40
2023-04-01T05:56:34.090Z,10.30
2023-04-01T05:59:02.181Z,10.30
2023-04-01T06:01:29.420Z,10.30
2023-04-01T06:03:56.854Z,10.30
2023-04-01T06:06:29.348Z,10.30
2023-04-01T06:09:21.004Z,10.30
2023-04-01T06:12:09.199Z,10.40
2023-04-01T06:15:48.883Z,10.30
2023-04-01T06:18:56.994Z,10.50
2023-04-01T06:21:46.301Z,10.60
2023-04-01T06:24:47.614Z,10.70
2023-04-01T06:28:06.333Z,10.80
2023-04-01T06:31:02.807Z,10.90
2023-04-01T06:33:58.663Z,10.90
2023-04-01T06:36:39.158Z,11.00
2023-04-01T06:39:28.673Z,11.10
2023-04-01T06:42:23.862Z,11.00
2023-04-01T06:45:32.811Z,11.20
2023-04-01T06:49:12.014Z,11.30
2023-04-01T06:52:20.631Z,11.30
2023-04-01T06:55:42.985Z,11.40
2023-04-01T06:58:37.403Z,11.30
2023-04-01T07:01:32.846Z,11.50
2023-04-01T07:04:27.540Z,11.70
2023-04-01T07:07:27.008Z,11.60
2023-04-01T07:10:02.471Z,11.50
2023-04-01T07:12:39.191Z,11.60
2023-04-01T07:15:33.149Z,11.70
2023-04-01T07:18:12.735Z,11.90
2023-04-01T07:20:40.498Z,11.90
2023-04-01T07:23:22.523Z,11.70
2023-04-01T07:26:18.763Z,11.90
2023-04-01T07:29:12.333Z,11.90
2023-04-01T07:32:23.980Z,11.70
2023-04-01T07:35:01.202Z,11.90
2023-04-01T07:38:20.613Z,11.90
2023-04-01T07:41:39.385Z,11.90
2023-04-01T07:44:23.356Z,11.80
2023-04-01T07:46:54.655Z,12.10
2023-04-01T07:49:24.621Z,12.30
2023-04-01T07:52:00.879Z,12.30
2023-04-01T07:54:58.637Z,12.30
2023-04-01T07:58:12.142Z,12.00
2023-04-01T08:01:05.660Z,12.10
2023-04-01T08:04:17.321Z,12.10
2023-04-01T08:07:12.075Z,12.00
2023-04-01T08:10:11.758Z,12.30
2023-04-01T08:13:44.958Z,12.70
2023-04-01T08:17:01.680Z,12.90
2023-04-01T08:19:54.179Z,13.30
2023-04-01T08:22:26.475Z,12.70
2023-04-01T08:24:58.346Z,12.80
2023-04-01T08:27:49.488Z,12.80
2023-04-01T08:30:35.776Z,12.80
2023-04-01T08:33:21.882Z,12.70
2023-04-01T08:36:20.280Z,12.70
2023-04-01T08:39:04.393Z,13.00
2023-04-01T08:42:19.879Z,13.00
2023-04-01T08:45:27.443Z,13.00
2023-04-01T08:48:09.998Z,13.30
2023-04-01T08:50:57.147Z,13.20
2023-04-01T08:53:28.956Z,12.70
2023-04-01T08:56:36.303Z,12.80
2023-04-01T08:59:32.533Z,12.90
2023-04-01T09:02:35.441Z,13.20
2023-04-01T09:05:48.268Z,13.30
2023-04-01T09:09:08.409Z,13.10
2023-04-01T09:12:02.740Z,13.30
2023-04-01T09:14:57.887Z,13.20
2023-04-01T09:18:14.652Z,13.20
2023-04-01T09:21:20.896Z,13.70
2023-04-01T09:24:00.293Z,13.40
2023-04-01T09:26:39.432Z,13.30
2023-04-01T09:29:25.925Z,13.30
2023-04-01T09:33:11.284Z,13.30
2023-04-01T09:36:19.861Z,13.40
2023-04-01T09:39:00.941Z,13.70
2023-04-01T09:41:40.982Z,13.70
2023-04-01T09:45:03.415Z,13.70
2023-04-01T09:47:55.794Z,14.20
2023-04-01T09:50:34.887Z,13.70
2023-04-01T09:53:23.943Z,13.60
2023-04-01T09:56:16.097Z,13.50
2023-04-01T09:59:15.003Z,13.20
2023-04-01T10:02:51.179Z,13.10
2023-04-01T10:06:29.379Z,13.20
2023-04-01T10:09:27.954Z,13.60
2023-04-01T10:12:26.219Z,13.80
2023-04-01T10:15:27.117Z,13.50
2023-04-01T10:18:32.154Z,13.20
2023-04-01T10:21:15.915Z,13.10
2023-04-01T10:24:23.177Z,13.10
2023-04-01T10:27:31.423Z,13.30
2023-04-01T10:30:55.471Z,13.40
2023-04-01T10:33:39.610Z,13.40
2023-04-01T10:36:25.254Z,13.40
2023-04-01T10:39:33.979Z,13.30
2023-04-01T10:43:12.065Z,13.00
2023-04-01T10:46:01.793Z,13.00
2023-04-01T10:49:21.395Z,13.30
2023-04-01T10:52:08.486Z,13.30
2023-04-01T10:55:22.156Z,13.20
2023-04-01T10:58:45.281Z,13.50
2023-04-01T11:02:04.011Z,13.80
2023-04-01T11:05:20.634Z,14.00
2023-04-01T11:08:37.543Z,13.80
2023-04-01T11:12:03.627Z,13.80
2023-04-01T11:15:18.298Z,14.00
2023-04-01T11:18:37.587Z,14.10
2023-04-01T11:21:29.104Z,14.60
2023-04-01T11:24:20.852Z,14.90
2023-04-01T11:27:21.764Z,14.80
2023-04-01T11:30:07.994Z,15.00
2023-04-01T11:33:17.019Z,15.20
2023-04-01T11:36:00.788Z,14.90
2023-04-01T11:38:46.138Z,14.30
2023-04-01T11:42:01.573Z,14.10
2023-04-01T11:45:29.968Z,13.80
2023-04-01T11:48:35.135Z,14.00
2023-04-01T11:51:30.959Z,14.40
2023-04-01T11:54:41.733Z,15.40
2023-04-01T11:57:39.671Z,16.50
2023-04-01T12:00:53.708Z,17.10
2023-04-01T12:03:36.006Z,16.90
2023-04-01T12:06:45.836Z,17.00
2023-04-01T12:09:31.834Z,16.60
2023-04-01T12:12:50.645Z,16.40
2023-04-01T12:15:34.179Z,16.60
2023-04-01T12:18:25.666Z,16.20
2023-04-01T12:21:16.626Z,15.60
2023-04-01T12:24:07.722Z,14.90
2023-04-01T12:27:17.227Z,15.00
2023-04-01T12:30:05.649Z,15.00
2023-04-01T12:32:51.250Z,15.00
2023-04-01T12:36:19.432Z,15.10
2023-04-01T12:39:04.683Z,15.70
2023-04-01T12:42:00.574Z,15.90
2023-04-01T12:45:24.581Z,15.50
2023-04-01T12:48:01.923Z,16.40
2023-04-01T12:51:10.483Z,17.10
2023-04-01T12:53:56.371Z,17.50
2023-04-01T12:56:38.864Z,17.40
2023-04-01T12:59:48.836Z,17.00
2023-04-01T13:02:53.201Z,17.40
2023-04-01T13:05:57.002Z,17.00
2023-04-01T13:09:07.901Z,17.20
2023-04-01T13:11:56.398Z,18.10
2023-04-01T13:14:57.490Z,19.70
2023-04-01T13:17:34.806Z,19.60
2023-04-01T13:20:10.993Z,20.00
2023-04-01T13:23:07.209Z,20.70
2023-04-01T13:26:13.650Z,21.10
2023-04-01T13:29:07.937Z,18.30
2023-04-01T13:32:13.239Z,18.40
2023-04-01T13:35:24.758Z,18.60
2023-04-01T13:38:50.629Z,18.60
2023-04-01T13:42:04.511Z,19.00
2023-04-01T13:44:44.765Z,20.30
2023-04-01T13:47:39.661Z,21.20
2023-04-01T13:50:34.958Z,20.60
2023-04-01T13:53:17.039Z,18.90
2023-04-01T13:55:59.072Z,18.30
2023-04-01T13:58:56.938Z,18.40
2023-04-01T14:02:03.816Z,18.20
2023-04-01T14:05:41.867Z,18.00
2023-04-01T14:08:49.620Z,18.80
2023-04-01T14:12:00.408Z,22.20
2023-04-01T14:15:00.292Z,26.80
2023-04-01T14:18:04.505Z,23.80
2023-04-01T14:20:39.959Z,20.40
2023-04-01T14:23:49.050Z,20.70
2023-04-01T14:26:42.708Z,21.60
2023-04-01T14:29:33.469Z,20.80
2023-04-01T14:32:18.673Z,19.30
2023-04-01T14:35:04.672Z,17.80
2023-04-01T14:38:03.981Z,17.30
2023-04-01T14:41:11.850Z,17.30
2023-04-01T14:43:56.817Z,17.40
2023-04-01T14:46:44.955Z,17.80
2023-04-01T14:49:21.739Z,17.90
2023-04-01T14:51:51.195Z,18.10
2023-04-01T14:54:33.357Z,17.80
2023-04-01T14:57:17.957Z,17.40
2023-04-01T14:59:56.249Z,16.90
2023-04-01T15:03:02.445Z,16.50
2023-04-01T15:05:41.612Z,15.90
2023-04-01T15:08:27.900Z,15.50
2023-04-01T15:11:41.681Z,15.80
2023-04-01T15:14:41.276Z,15.10
2023-04-01T15:17:30.001Z,15.10
2023-04-01T15:20:54.625Z,14.90
2023-04-01T15:23:50.544Z,15.30
2023-04-01T15:26:44.372Z,15.50
2023-04-01T15:29:44.926Z,15.50
2023-04-01T15:32:26.782Z,15.30
2023-04-01T15:35:19.810Z,14.70
2023-04-01T15:38:05.988Z,14.50
2023-04-01T15:41:04.971Z,14.30
2023-04-01T15:43:51.086Z,14.50
2023-04-01T15:46:50.164Z,14.60
2023-04-01T15:49:40.168Z,14.90
2023-04-01T15:52:36.974Z,14.70
2023-04-01T15:55:32.851Z,14.60
2023-04-01T15:58:27.450Z,14.50
2023-04-01T16:01:38.060Z,14.50
2023-04-01T16:04:27.331Z,14.20
2023-04-01T16:07:23.776Z,14.00
2023-04-01T16:10:23.355Z,13.70
2023-04-01T16:13:33.658Z,14.00
2023-04-01T16:16:31.825Z,14.10
2023-04-01T16:19:50.147Z,13.90
2023-04-01T16:22:51.519Z,13.90
2023-04-01T16:25:48.442Z,14.00
2023-04-01T16:28:40.909Z,14.20
2023-04-01T16:31:46.644Z,14.20
2023-04-01T16:34:55.794Z,13.90
2023-04-01T16:37:40.675Z,13.70
2023-04-01T16:40:54.476Z,13.60
2023-04-01T16:43:43.344Z,13.70
2023-04-01T16:46:16.987Z,13.70
2023-04-01T16:49:12.186Z,13.50
2023-04-01T16:52:17.299Z,13.30
2023-04-01T16:55:19.960Z,13.30
2023-04-01T16:57:59.537Z,13.30
2023-04-01T17:00:51.269Z,13.20
2023-04-01T17:04:06.034Z,13.30
2023-04-01T17:06:45.386Z,13.20
2023-04-01T17:09:24.576Z,13.20
2023-04-01T17:12:22.988Z,13.30
2023-04-01T17:15:24.583Z,13.30
2023-04-01T17:18:40.115Z,13.20
2023-04-01T17:21:26.686Z,13.00
2023-04-01T17:24:13.549Z,12.80
2023-04-01T17:26:48.613Z,12.70
2023-04-01T17:29:42.230Z,12.60
2023-04-01T17:33:03.702Z,12.60
2023-04-01T17:35:53.504Z,12.60
2023-04-01T17:38:39.332Z,12.40
2023-04-01T17:41:12.414Z,12.30
2023-04-01T17:44:18.056Z,12.30
2023-04-01T17:47:47.565Z,12.20
2023-04-01T17:50:59.630Z,12.30
2023-04-01T17:54:03.432Z,12.20
2023-04-01T17:56:53.506Z,12.20
2023-04-01T17:59:50.577Z,12.20
2023-04-01T18:02:28.323Z,12.20
2023-04-01T18:05:26.237Z,12.10
2023-04-01T18:08:33.525Z,12.10
2023-04-01T18:11:36.829Z,12.10
2023-04-01T18:14:51.498Z,12.00
2023-04-01T18:17:40.265Z,11.90
2023-04-01T18:20:55.566Z,11.90
2023-04-01T18:23:36.537Z,11.80
2023-04-01T18:26:28.806Z,11.80
2023-04-01T18:29:18.958Z,11.70
2023-04-01T18:31:53.260Z,11.70
2023-04-01T18:34:48.880Z,11.60
2023-04-01T18:37:30.006Z,11.60
2023-04-01T18:40:26.467Z,11.50
2023-04-01T18:43:18.104Z,11.50
2023-04-01T18:46:03.405Z,11.40
2023-04-01T18:49:19.197Z,11.40
2023-04-01T18:51:56.936Z,11.40
2023-04-01T18:54:58.694Z,11.40
2023-04-01T18:57:27.222Z,11.50
2023-04-01T19:00:06.651Z,11.50
2023-04-01T19:02:40.614Z,11.60
2023-04-01T19:05:21.458Z,11.60
2023-04-01T19:07:56.043Z,11.70
2023-04-01T19:10:27.531Z,11.70
2023-04-01T19:13:12.714Z,11.70
2023-04-01T19:16:13.059Z,11.80
2023-04-01T19:19:31.582Z,11.80
2023-04-01T19:22:47.482Z,11.80
2023-04-01T19:25:40.131Z,11.70
2023-04-01T19:28:31.792Z,11.60
2023-04-01T19:31:14.445Z,11.60
2023-04-01T19:34:08.430Z,11.70
2023-04-01T19:36:57.327Z,11.70
2023-04-01T19:39:43.322Z,11.80
2023-04-01T19:42:22.586Z,11.80
2023-04-01T19:45:25.163Z,11.80
2023-04-01T19:47:59.871Z,11.80
2023-04-01T19:50:47.680Z,11.70
2023-04-01T19:53:34.266Z,11.70
2023-04-01T19:56:27.283Z,11.70
2023-04-01T19:59:35.917Z,11.70
2023-04-01T20:02:21.517Z,11.80
2023-04-01T20:04:57.411Z,11.80
2023-04-01T20:07:45.491Z,11.90
2023-04-01T20:10:23.975Z,11.90
2023-04-01T20:13:34.578Z,11.90
2023-04-01T20:16:08.458Z,11.90
2023-04-01T20:18:59.939Z,11.90
2023-04-01T20:21:37.919Z,11.90
2023-04-01T20:24:42.692Z,11.90
2023-04-01T20:27:15.227Z,11.90
2023-04-01T20:30:09.685Z,11.90
2023-04-01T20:33:02.365Z,11.90
2023-04-01T20:35:58.684Z,11.90
2023-04-01T20:38:54.349Z,11.80
2023-04-01T20:41:24.553Z,11.70
2023-04-01T20:44:06.372Z,11.60
2023-04-01T20:47:18.585Z,11.60
2023-04-01T20:50:01.528Z,11.70
2023-04-01T20:52:45.619Z,11.70
2023-04-01T20:55:41.477Z,11.70
2023-04-01T20:58:20.925Z,11.80
2023-04-01T21:01:06.183Z,11.80
2023-04-01T21:03:49.743Z,11.80
2023-04-01T21:06:29.259Z,11.80
2023-04-01T21:09:17.952Z,11.70
2023-04-01T21:12:01.943Z,11.70
2023-04-01T21:15:15.825Z,11.60
2023-04-01T21:18:25.028Z,11.60
2023-04-01T21:21:10.494Z,11.60
2023-04-01T21:23:59.391Z,11.60
2023-04-01T21:26:35.703Z,11.60
2023-04-01T21:29:27.368Z,11.40
2023-04-01T21:32:12.612Z,11.30
2023-04-01T21:35:01.975Z,11.30
2023-04-01T21:37:55.377Z,11.30
2023-04-01T21:40:51.090Z,11.20
2023-04-01T21:43:59.687Z,11.10
2023-04-01T21:47:07.907Z,11.20
2023-04-01T21:50:13.285Z,11.10
2023-04-01T21:52:55.077Z,11.10
2023-04-01T21:55:52.631Z,11.00
2023-04-01T21:58:53.645Z,10.80
2023-04-01T22:01:45.852Z,10.60
2023-04-01T22:04:37.295Z,10.70
2023-04-01T22:07:35.401Z,10.80
2023-04-01T22:10:52.330Z,10.80
2023-04-01T22:13:50.493Z,10.70
2023-04-01T22:16:57.353Z,10.70
2023-04-01T22:20:10.407Z,10.70
2023-04-01T22:23:29.470Z,10.60
2023-04-01T22:26:29.262Z,10.60
2023-04-01T22:29:08.945Z,10.50
2023-04-01T22:32:10.941Z,10.40
2023-04-01T22:34:50.640Z,10.30
2023-04-01T22:37:51.712Z,10.40
2023-04-01T22:40:29.829Z,10.30
2023-04-01T22:43:18.333Z,10.40
2023-04-01T22:45:54.448Z,10.40
2023-04-01T22:48:43.869Z,10.40
2023-04-01T22:51:42.784Z,10.30
2023-04-01T22:54:23.194Z,10.20
2023-04-01T22:57:06.103Z,10.20
2023-04-01T22:59:39.139Z,10.20
2023-04-01T23:02:31.642Z,10.10
2023-04-01T23:05:03.968Z,10.10
2023-04-01T23:07:56.164Z,10.10
2023-04-01T23:10:42.107Z,10.00
2023-04-01T23:13:20.707Z,10.00
2023-04-01T23:15:48.637Z,9.90
2023-04-01T23:18:38.115Z,9.80
2023-04-01T23:21:30.011Z,9.80
2023-04-01T23:24:14.633Z,9.80
2023-04-01T23:27:22.637Z,9.60
2023-04-01T23:29:49.808Z,9.60
2023-04-01T23:32:25.814Z,9.60
2023-04-01T23:35:01.320Z,9.50
2023-04-01T23:37:28.861Z,9.50
2023-04-01T23:39:58.896Z,9.40
2023-04-01T23:42:40.582Z,9.40
2023-04-01T23:45:18.399Z,9.40
2023-04-01T23:47:48.016Z,9.50
2023-04-01T23:50:29.291Z,9.40
2023-04-01T23:53:35.566Z,9.50
2023-04-01T23:56:04.066Z,9.50
2023-04-01T23:59:00.693Z,9.40
